createdAt,value
2018-10-11T00:00:45.377Z,3.23
2018-10-11T00:03:14.315Z,3.50
2018-10-11T00:05:43.577Z,3.50
2018-10-11T00:08:12.590Z,3.50
2018-10-11T00:10:42.042Z,4.23
2018-10-11T00:13:11.042Z,3.60
2018-10-11T00:15:40.253Z,3.90
2018-10-11T00:18:09.459Z,3.83
2018-10-11T00:20:38.738Z,3.63
2018-10-11T00:23:07.918Z,3.40
2018-10-11T00:25:37.388Z,3.60
2018-10-11T00:28:06.519Z,4.10
2018-10-11T00:30:35.987Z,4.13
2018-10-11T00:33:05.079Z,3.83
2018-10-11T00:35:34.350Z,3.20
2018-10-11T00:38:03.465Z,4.07
2018-10-11T00:40:32.854Z,4.00
2018-10-11T00:43:01.973Z,4.23
2018-10-11T00:45:31.285Z,4.33
2018-10-11T00:48:00.253Z,3.67
2018-10-11T00:50:29.253Z,4.33
2018-10-11T00:52:58.445Z,3.83
2018-10-11T00:55:27.522Z,3.97
2018-10-11T00:57:56.526Z,4.13
2018-10-11T01:00:25.714Z,4.10
2018-10-11T01:02:55.198Z,4.20
2018-10-11T01:05:24.405Z,4.00
2018-10-11T01:07:53.433Z,4.30
2018-10-11T01:10:22.721Z,4.37
2018-10-11T01:12:51.856Z,4.47
2018-10-11T01:15:21.021Z,4.20
2018-10-11T01:17:49.909Z,4.60
2018-10-11T01:20:19.041Z,4.23
2018-10-11T01:22:48.674Z,4.60
2018-10-11T01:25:17.840Z,4.60
2018-10-11T01:27:46.945Z,4.37
2018-10-11T01:30:15.990Z,4.30
2018-10-11T01:32:45.519Z,4.73
2018-10-11T01:35:14.554Z,4.77
2018-10-11T01:37:43.837Z,4.10
2018-10-11T01:40:12.850Z,4.57
2018-10-11T01:42:42.161Z,4.53
2018-10-11T01:45:11.461Z,4.50
2018-10-11T01:47:40.468Z,4.83
2018-10-11T01:50:09.689Z,4.50
2018-10-11T01:52:38.954Z,4.30
2018-10-11T01:55:08.246Z,4.20
2018-10-11T01:57:37.182Z,4.07
2018-10-11T02:00:06.252Z,4.50
2018-10-11T02:02:35.297Z,4.53
2018-10-11T02:05:04.356Z,4.47
2018-10-11T02:07:33.470Z,4.13
2018-10-11T02:10:02.463Z,4.73
2018-10-11T02:12:31.849Z,4.57
2018-10-11T02:15:01.066Z,4.50
2018-10-11T02:17:30.062Z,4.20
2018-10-11T02:19:59.217Z,4.40
2018-10-11T02:22:28.275Z,4.50
2018-10-11T02:24:57.517Z,4.53
2018-10-11T02:27:27.038Z,3.80
2018-10-11T02:29:55.967Z,4.47
2018-10-11T02:32:25.597Z,4.63
2018-10-11T02:34:54.765Z,4.20
2018-10-11T02:37:23.866Z,4.07
2018-10-11T02:39:53.663Z,4.10
2018-10-11T02:42:23.161Z,4.33
2018-10-11T02:44:52.075Z,3.90
2018-10-11T02:47:21.194Z,4.83
2018-10-11T02:49:50.189Z,4.33
2018-10-11T02:52:19.701Z,4.20
2018-10-11T02:54:48.709Z,4.43
2018-10-11T02:57:28.518Z,4.50
2018-10-11T02:59:58.132Z,4.93
2018-10-11T03:02:27.165Z,4.77
2018-10-11T03:04:56.281Z,4.60
2018-10-11T03:07:26.845Z,4.43
2018-10-11T03:09:56.244Z,4.60
2018-10-11T03:12:25.632Z,4.43
2018-10-11T03:14:55.244Z,4.50
2018-10-11T03:17:24.476Z,4.57
2018-10-11T03:19:53.487Z,4.40
2018-10-11T03:22:22.646Z,4.67
2018-10-11T03:24:51.767Z,4.77
2018-10-11T03:27:20.789Z,4.37
2018-10-11T03:29:49.742Z,4.67
2018-10-11T03:32:18.698Z,4.73
2018-10-11T03:34:48.037Z,4.30
2018-10-11T03:37:17.183Z,4.50
2018-10-11T03:39:47.094Z,4.50
2018-10-11T03:42:16.381Z,4.23
2018-10-11T03:44:45.493Z,4.63
2018-10-11T03:47:14.611Z,4.10
2018-10-11T03:49:43.590Z,4.53
2018-10-11T03:52:12.590Z,4.43
2018-10-11T03:54:41.475Z,4.50
2018-10-11T03:57:10.617Z,4.37
2018-10-11T03:59:40.141Z,4.33
2018-10-11T04:02:09.622Z,4.50
2018-10-11T04:04:38.986Z,4.10
2018-10-11T04:07:08.117Z,3.70
2018-10-11T04:09:37.564Z,4.27
2018-10-11T04:12:07.323Z,4.40
2018-10-11T04:14:36.497Z,4.80
2018-10-11T04:17:05.597Z,4.37
2018-10-11T04:19:35.181Z,4.60
2018-10-11T04:22:04.150Z,4.40
2018-10-11T04:24:33.457Z,4.20
2018-10-11T04:27:02.490Z,4.67
2018-10-11T04:29:31.370Z,4.37
2018-10-11T04:32:00.538Z,4.27
2018-10-11T04:34:29.801Z,4.67
2018-10-11T04:36:58.925Z,4.70
2018-10-11T04:39:28.247Z,4.40
2018-10-11T04:41:57.366Z,4.77
2018-10-11T04:44:26.675Z,4.53
2018-10-11T04:46:55.961Z,4.80
2018-10-11T04:49:24.935Z,5.07
2018-10-11T04:51:53.929Z,5.50
2018-10-11T04:54:23.238Z,5.53
2018-10-11T04:56:52.885Z,5.10
2018-10-11T04:59:23.910Z,5.00
2018-10-11T05:01:58.063Z,4.83
2018-10-11T05:04:33.085Z,5.17
2018-10-11T05:07:02.138Z,5.10
2018-10-11T05:09:31.916Z,5.40
2018-10-11T05:12:01.253Z,5.30
2018-10-11T05:14:30.741Z,5.13
2018-10-11T05:16:59.885Z,5.63
2018-10-11T05:19:29.022Z,5.70
2018-10-11T05:21:58.323Z,5.13
2018-10-11T05:24:27.701Z,5.63
2018-10-11T05:26:56.649Z,5.73
2018-10-11T05:29:26.155Z,5.73
2018-10-11T05:31:56.518Z,6.53
2018-10-11T05:34:26.070Z,6.33
2018-10-11T05:36:55.123Z,5.60
2018-10-11T05:39:24.809Z,5.93
2018-10-11T05:41:53.976Z,5.87
2018-10-11T05:44:23.366Z,5.33
2018-10-11T05:46:52.790Z,5.50
2018-10-11T05:49:22.948Z,5.73
2018-10-11T05:51:52.114Z,5.43
2018-10-11T05:54:23.336Z,5.87
2018-10-11T05:56:52.965Z,5.80
2018-10-11T05:59:22.189Z,5.93
2018-10-11T06:01:51.320Z,5.70
2018-10-11T06:04:20.558Z,5.83
2018-10-11T06:06:49.922Z,5.20
2018-10-11T06:09:19.150Z,6.03
2018-10-11T06:11:48.460Z,5.63
2018-10-11T06:14:17.525Z,5.77
2018-10-11T06:16:46.686Z,6.23
2018-10-11T06:19:16.672Z,5.93
2018-10-11T06:21:45.715Z,4.83
2018-10-11T06:24:15.050Z,6.23
2018-10-11T06:26:44.241Z,5.67
2018-10-11T06:29:13.334Z,5.50
2018-10-11T06:31:42.742Z,5.43
2018-10-11T06:34:12.225Z,6.50
2018-10-11T06:36:42.405Z,5.30
2018-10-11T06:39:12.255Z,5.70
2018-10-11T06:41:41.876Z,6.10
2018-10-11T06:44:12.545Z,6.07
2018-10-11T06:46:42.107Z,5.77
2018-10-11T06:49:11.122Z,6.03
2018-10-11T06:51:40.045Z,5.83
2018-10-11T06:54:09.275Z,6.03
2018-10-11T06:56:38.368Z,5.70
2018-10-11T06:59:07.416Z,5.40
2018-10-11T07:01:36.745Z,5.60
2018-10-11T07:04:05.942Z,5.93
2018-10-11T07:06:35.166Z,5.40
2018-10-11T07:09:04.685Z,6.17
2018-10-11T07:11:34.377Z,5.47
2018-10-11T07:14:04.459Z,5.30
2018-10-11T07:16:33.642Z,5.43
2018-10-11T07:19:03.038Z,5.30
2018-10-11T07:21:32.165Z,4.90
2018-10-11T07:24:02.178Z,5.37
2018-10-11T07:26:31.393Z,5.23
2018-10-11T07:29:00.443Z,5.40
2018-10-11T07:31:29.391Z,4.80
2018-10-11T07:33:58.421Z,4.80
2018-10-11T07:36:27.554Z,5.90
2018-10-11T07:38:56.708Z,5.30
2018-10-11T07:41:25.870Z,4.97
2018-10-11T07:43:55.006Z,5.07
2018-10-11T07:46:23.949Z,5.20
2018-10-11T07:48:53.927Z,4.60
2018-10-11T07:51:22.858Z,5.23
2018-10-11T07:53:51.926Z,4.97
2018-10-11T07:56:21.177Z,4.77
2018-10-11T07:58:50.617Z,4.83
2018-10-11T08:01:19.696Z,4.70
2018-10-11T08:03:49.179Z,4.33
2018-10-11T08:06:18.385Z,4.70
2018-10-11T08:08:47.876Z,4.83
2018-10-11T08:11:17.033Z,4.83
2018-10-11T08:13:45.953Z,4.70
2018-10-11T08:16:14.980Z,4.77
2018-10-11T08:18:44.465Z,4.40
2018-10-11T08:21:13.737Z,4.97
2018-10-11T08:23:43.098Z,4.63
2018-10-11T08:26:13.175Z,4.70
2018-10-11T08:28:42.093Z,5.10
2018-10-11T08:31:12.110Z,5.33
2018-10-11T08:33:41.129Z,5.07
2018-10-11T08:36:10.058Z,4.80
2018-10-11T08:38:39.646Z,4.30
2018-10-11T08:41:09.011Z,4.83
2018-10-11T08:43:38.056Z,4.93
2018-10-11T08:46:07.281Z,4.87
2018-10-11T08:48:36.496Z,5.07
2018-10-11T08:51:05.530Z,4.67
2018-10-11T08:53:34.484Z,4.77
2018-10-11T08:56:03.578Z,4.23
2018-10-11T08:58:33.000Z,4.50
2018-10-11T09:01:02.118Z,4.57
2018-10-11T09:03:31.249Z,4.23
2018-10-11T09:06:00.498Z,4.83
2018-10-11T09:08:29.390Z,4.67
2018-10-11T09:10:58.544Z,4.53
2018-10-11T09:13:27.773Z,3.60
2018-10-11T09:15:56.765Z,4.33
2018-10-11T09:18:25.761Z,4.03
2018-10-11T09:20:54.653Z,3.40
2018-10-11T09:23:23.828Z,3.20
2018-10-11T09:25:53.078Z,3.50
2018-10-11T09:28:22.219Z,3.97
2018-10-11T09:30:51.700Z,3.43
2018-10-11T09:33:20.673Z,4.17
2018-10-11T09:35:49.966Z,3.87
2018-10-11T09:38:18.925Z,4.07
2018-10-11T09:40:48.244Z,4.17
2018-10-11T09:43:17.249Z,3.73
2018-10-11T09:45:46.470Z,3.87
2018-10-11T09:48:15.461Z,3.70
2018-10-11T09:50:44.573Z,3.60
2018-10-11T09:53:13.437Z,4.07
2018-10-11T09:55:42.433Z,3.90
2018-10-11T09:58:11.382Z,3.67
2018-10-11T10:00:45.746Z,3.60
2018-10-11T10:03:14.602Z,3.70
2018-10-11T10:05:44.333Z,4.17
2018-10-11T10:08:13.385Z,4.43
2018-10-11T10:10:42.257Z,3.67
2018-10-11T10:13:11.929Z,4.10
2018-10-11T10:15:40.994Z,4.10
2018-10-11T10:18:09.989Z,4.17
2018-10-11T10:20:39.218Z,4.20
2018-10-11T10:23:08.350Z,3.50
2018-10-11T10:25:37.818Z,4.13
2018-10-11T10:28:06.401Z,3.63
2018-10-11T10:30:40.721Z,3.40
2018-10-11T10:33:09.641Z,3.90
2018-10-11T10:35:39.601Z,4.30
2018-10-11T10:38:08.800Z,3.70
2018-10-11T10:40:38.127Z,4.07
2018-10-11T10:43:07.127Z,4.17
2018-10-11T10:45:36.294Z,3.50
2018-10-11T10:48:05.488Z,4.10
2018-10-11T10:50:34.427Z,4.80
2018-10-11T10:53:03.478Z,3.63
2018-10-11T10:55:32.813Z,4.10
2018-10-11T10:58:01.915Z,3.90
2018-10-11T11:00:31.238Z,4.40
2018-10-11T11:03:00.720Z,4.10
2018-10-11T11:05:29.939Z,4.10
2018-10-11T11:07:58.998Z,3.60
2018-10-11T11:10:28.217Z,4.00
2018-10-11T11:12:57.222Z,4.33
2018-10-11T11:15:26.261Z,4.30
2018-10-11T11:17:55.369Z,3.97
2018-10-11T11:20:24.813Z,4.50
2018-10-11T11:22:54.253Z,4.50
2018-10-11T11:25:23.370Z,4.70
2018-10-11T11:27:52.410Z,4.70
2018-10-11T11:30:21.589Z,4.50
2018-10-11T11:32:50.873Z,4.17
2018-10-11T11:35:20.158Z,4.10
2018-10-11T11:37:49.025Z,4.23
2018-10-11T11:40:18.023Z,5.00
2018-10-11T11:42:47.037Z,4.90
2018-10-11T11:45:16.031Z,4.30
2018-10-11T11:47:46.191Z,4.50
2018-10-11T11:50:15.347Z,5.00
2018-10-11T11:52:44.325Z,4.70
2018-10-11T11:55:13.485Z,4.60
2018-10-11T11:57:42.617Z,4.73
2018-10-11T12:00:11.670Z,4.47
2018-10-11T12:02:40.863Z,4.63
2018-10-11T12:05:10.034Z,4.60
2018-10-11T12:07:39.541Z,3.90
2018-10-11T12:10:08.779Z,4.43
2018-10-11T12:12:52.799Z,4.33
2018-10-11T12:15:23.390Z,4.80
2018-10-11T12:17:54.463Z,4.33
2018-10-11T12:20:27.537Z,4.70
2018-10-11T12:22:58.726Z,4.37
2018-10-11T12:25:28.274Z,4.57
2018-10-11T12:27:57.241Z,4.73
2018-10-11T12:30:26.382Z,4.80
2018-10-11T12:32:55.883Z,4.60
2018-10-11T12:35:25.444Z,4.63
2018-10-11T12:37:54.484Z,4.30
2018-10-11T12:40:24.226Z,4.40
2018-10-11T12:42:52.643Z,4.63
2018-10-11T12:45:21.808Z,4.10
2018-10-11T12:47:50.626Z,4.33
2018-10-11T12:50:19.948Z,4.83
2018-10-11T12:52:48.981Z,4.10
2018-10-11T12:55:18.023Z,4.20
2018-10-11T12:57:46.937Z,4.50
2018-10-11T13:00:16.958Z,4.57
2018-10-11T13:02:46.032Z,4.80
2018-10-11T13:05:14.942Z,4.50
2018-10-11T13:07:44.161Z,4.33
2018-10-11T13:10:13.111Z,4.00
2018-10-11T13:12:42.510Z,4.00
2018-10-11T13:15:11.758Z,4.03
2018-10-11T13:17:43.388Z,4.27
2018-10-11T13:20:09.846Z,4.10
2018-10-11T13:22:38.903Z,3.77
2018-10-11T13:25:08.068Z,4.33
2018-10-11T13:27:37.149Z,3.93
2018-10-11T13:30:06.339Z,3.97
2018-10-11T13:32:35.584Z,3.70
2018-10-11T13:35:05.059Z,4.43
2018-10-11T13:37:34.409Z,4.20
2018-10-11T13:40:03.852Z,4.00
2018-10-11T13:42:32.959Z,3.67
2018-10-11T13:45:01.933Z,4.00
2018-10-11T13:47:32.705Z,4.10
2018-10-11T13:50:00.088Z,3.80
2018-10-11T13:52:29.489Z,4.07
2018-10-11T13:54:58.377Z,4.83
2018-10-11T13:57:31.124Z,4.47
2018-10-11T13:59:57.034Z,4.70
2018-10-11T14:02:27.588Z,4.47
2018-10-11T14:04:56.620Z,4.50
2018-10-11T14:07:25.584Z,4.40
2018-10-11T14:09:54.521Z,4.57
2018-10-11T14:12:23.684Z,4.37
2018-10-11T14:14:54.675Z,4.23
2018-10-11T14:17:23.745Z,4.60
2018-10-11T14:19:52.943Z,5.00
2018-10-11T14:22:21.955Z,4.87
2018-10-11T14:24:51.078Z,4.90
2018-10-11T14:27:20.218Z,5.00
2018-10-11T14:29:49.128Z,4.40
2018-10-11T14:32:18.809Z,4.63
2018-10-11T14:34:48.774Z,4.80
2018-10-11T14:37:18.009Z,4.80
2018-10-11T14:39:47.202Z,4.73
2018-10-11T14:42:16.526Z,5.13
2018-10-11T14:44:45.722Z,4.60
2018-10-11T14:47:14.715Z,4.90
2018-10-11T14:49:43.646Z,5.37
2018-10-11T14:52:12.813Z,4.97
2018-10-11T14:54:42.238Z,5.00
2018-10-11T14:57:11.293Z,4.97
2018-10-11T14:59:40.476Z,4.73
2018-10-11T15:02:09.558Z,5.53
2018-10-11T15:04:38.526Z,4.87
2018-10-11T15:07:07.969Z,4.93
2018-10-11T15:09:37.422Z,4.70
2018-10-11T15:12:06.522Z,5.40
2018-10-11T15:14:35.804Z,5.47
2018-10-11T15:17:04.809Z,5.00
2018-10-11T15:19:34.286Z,4.80
2018-10-11T15:22:03.717Z,5.10
2018-10-11T15:24:33.018Z,4.90
2018-10-11T15:27:02.757Z,5.17
2018-10-11T15:29:32.083Z,5.23
2018-10-11T15:32:01.173Z,5.57
2018-10-11T15:34:31.108Z,5.30
2018-10-11T15:37:00.217Z,5.20
2018-10-11T15:39:29.058Z,5.67
2018-10-11T15:41:58.352Z,4.87
2018-10-11T15:44:27.517Z,5.07
2018-10-11T15:46:56.829Z,4.70
2018-10-11T15:49:26.028Z,4.93
2018-10-11T15:51:54.982Z,5.10
2018-10-11T15:54:24.139Z,6.10
2018-10-11T15:56:53.286Z,6.10
2018-10-11T15:59:22.637Z,5.13
2018-10-11T16:01:51.675Z,5.60
2018-10-11T16:04:20.989Z,5.80
2018-10-11T16:06:50.292Z,5.70
2018-10-11T16:09:20.245Z,5.70
2018-10-11T16:11:49.282Z,5.77
2018-10-11T16:14:18.254Z,5.93
2018-10-11T16:16:47.572Z,5.60
2018-10-11T16:19:16.771Z,5.70
2018-10-11T16:21:46.112Z,5.73
2018-10-11T16:24:15.281Z,5.50
2018-10-11T16:26:44.280Z,5.53
2018-10-11T16:29:13.750Z,5.73
2018-10-11T16:31:43.774Z,5.60
2018-10-11T16:34:12.815Z,5.53
2018-10-11T16:36:41.871Z,6.10
2018-10-11T16:39:11.184Z,5.97
2018-10-11T16:41:40.205Z,5.33
2018-10-11T16:44:09.234Z,6.07
2018-10-11T16:46:38.156Z,7.17
2018-10-11T16:49:07.741Z,6.33
2018-10-11T16:51:37.113Z,7.07
2018-10-11T16:54:06.120Z,6.23
2018-10-11T16:56:35.905Z,7.50
2018-10-11T16:59:05.060Z,7.27
2018-10-11T17:01:34.091Z,7.50
2018-10-11T17:04:03.571Z,7.70
2018-10-11T17:06:32.691Z,8.00
2018-10-11T17:09:02.150Z,7.87
2018-10-11T17:11:31.333Z,7.03
2018-10-11T17:14:00.521Z,7.97
2018-10-11T17:16:29.751Z,7.77
2018-10-11T17:18:58.665Z,7.40
2018-10-11T17:21:27.802Z,7.60
2018-10-11T17:23:57.015Z,7.67
2018-10-11T17:26:25.999Z,7.63
2018-10-11T17:28:55.675Z,8.13
2018-10-11T17:31:24.758Z,7.63
2018-10-11T17:33:54.014Z,7.77
2018-10-11T17:36:24.075Z,7.20
2018-10-11T17:38:53.066Z,7.73
2018-10-11T17:41:22.474Z,7.40
2018-10-11T17:43:51.497Z,7.73
2018-10-11T17:46:20.449Z,7.37
2018-10-11T17:48:49.679Z,7.00
2018-10-11T17:51:18.797Z,7.63
2018-10-11T17:53:47.797Z,7.47
2018-10-11T17:56:16.945Z,7.30
2018-10-11T17:58:46.003Z,8.17
2018-10-11T18:01:15.082Z,7.97
2018-10-11T18:03:44.368Z,7.63
2018-10-11T18:06:13.657Z,6.83
2018-10-11T18:08:42.818Z,7.97
2018-10-11T18:11:12.226Z,8.40
2018-10-11T18:13:41.480Z,8.03
2018-10-11T18:16:11.085Z,8.17
2018-10-11T18:18:40.109Z,9.30
2018-10-11T18:21:09.423Z,8.43
2018-10-11T18:23:38.325Z,8.73
2018-10-11T18:26:07.401Z,8.73
2018-10-11T18:28:36.738Z,8.90
2018-10-11T18:31:05.733Z,8.83
2018-10-11T18:33:34.884Z,8.57
2018-10-11T18:36:04.198Z,9.13
2018-10-11T18:38:33.930Z,8.97
2018-10-11T18:41:02.841Z,10.30
2018-10-11T18:43:32.201Z,10.13
2018-10-11T18:46:01.231Z,10.03
2018-10-11T18:48:30.372Z,10.37
2018-10-11T18:50:59.497Z,10.23
2018-10-11T18:53:28.434Z,10.70
2018-10-11T18:55:57.389Z,11.10
2018-10-11T18:58:26.705Z,11.30
2018-10-11T19:00:56.110Z,12.77
2018-10-11T19:03:25.108Z,12.70
2018-10-11T19:05:54.038Z,13.47
2018-10-11T19:08:23.082Z,13.67
2018-10-11T19:10:52.404Z,13.23
2018-10-11T19:13:21.361Z,13.77
2018-10-11T19:15:50.409Z,13.70
2018-10-11T19:18:19.695Z,15.20
2018-10-11T19:20:48.973Z,14.43
2018-10-11T19:23:17.865Z,14.30
2018-10-11T19:25:47.537Z,15.00
2018-10-11T19:28:16.842Z,15.40
2018-10-11T19:30:46.296Z,14.90
2018-10-11T19:33:15.562Z,15.97
2018-10-11T19:35:44.862Z,16.60
2018-10-11T19:38:14.300Z,15.90
2018-10-11T19:40:43.753Z,16.77
2018-10-11T19:43:13.035Z,16.03
2018-10-11T19:45:41.922Z,16.20
2018-10-11T19:48:11.161Z,17.40
2018-10-11T19:50:40.893Z,18.33
2018-10-11T19:53:10.021Z,18.23
2018-10-11T19:55:39.234Z,18.33
2018-10-11T19:58:08.337Z,17.87
2018-10-11T20:00:37.438Z,18.17
2018-10-11T20:03:06.476Z,19.83
2018-10-11T20:05:35.554Z,19.17
2018-10-11T20:08:04.746Z,20.00
2018-10-11T20:10:34.123Z,19.93
2018-10-11T20:13:03.097Z,19.57
2018-10-11T20:15:32.026Z,20.63
2018-10-11T20:18:03.902Z,20.03
2018-10-11T20:20:30.337Z,20.77
2018-10-11T20:22:59.668Z,21.63
2018-10-11T20:25:28.872Z,20.17
2018-10-11T20:27:57.988Z,21.03
2018-10-11T20:30:27.242Z,21.57
2018-10-11T20:32:56.205Z,20.73
2018-10-11T20:35:26.085Z,20.90
2018-10-11T20:37:55.398Z,20.53
2018-10-11T20:40:24.727Z,20.50
2018-10-11T20:42:54.304Z,20.30
2018-10-11T20:45:23.612Z,20.50
2018-10-11T20:47:52.601Z,19.80
2018-10-11T20:50:21.966Z,20.10
2018-10-11T20:52:51.193Z,21.63
2018-10-11T20:55:20.683Z,20.57
2018-10-11T20:57:50.208Z,20.60
2018-10-11T21:00:19.678Z,20.87
2018-10-11T21:02:48.793Z,20.80
2018-10-11T21:05:17.902Z,21.53
2018-10-11T21:07:47.713Z,20.57
2018-10-11T21:10:17.298Z,20.50
2018-10-11T21:12:46.698Z,21.57
2018-10-11T21:15:16.163Z,21.00
2018-10-11T21:17:45.200Z,22.10
2018-10-11T21:20:14.757Z,21.30
2018-10-11T21:22:43.817Z,23.07
2018-10-11T21:25:13.313Z,21.60
2018-10-11T21:27:42.407Z,22.27
2018-10-11T21:30:11.459Z,23.37
2018-10-11T21:32:40.776Z,22.77
2018-10-11T21:35:10.346Z,23.00
2018-10-11T21:37:39.506Z,23.07
2018-10-11T21:40:08.886Z,22.30
2018-10-11T21:42:38.008Z,22.80
2018-10-11T21:45:07.418Z,23.13
2018-10-11T21:47:36.557Z,22.63
2018-10-11T21:50:05.937Z,23.80
2018-10-11T21:52:35.114Z,23.10
2018-10-11T21:55:04.401Z,23.47
2018-10-11T21:57:33.484Z,21.47
2018-10-11T22:00:02.798Z,24.30
2018-10-11T22:02:32.418Z,22.77
2018-10-11T22:05:01.610Z,22.10
2018-10-11T22:07:30.561Z,22.63
2018-10-11T22:09:59.885Z,22.70
2018-10-11T22:12:29.326Z,21.53
2018-10-11T22:14:58.665Z,23.00
2018-10-11T22:17:27.743Z,23.07
2018-10-11T22:19:56.861Z,22.87
2018-10-11T22:22:26.064Z,23.83
2018-10-11T22:24:55.044Z,23.97
2018-10-11T22:27:24.482Z,23.63
2018-10-11T22:29:53.462Z,21.90
2018-10-11T22:32:22.759Z,23.30
2018-10-11T22:34:51.769Z,22.33
2018-10-11T22:37:20.795Z,23.20
2018-10-11T22:39:49.971Z,22.53
2018-10-11T22:42:19.055Z,22.67
2018-10-11T22:44:48.059Z,23.77
2018-10-11T22:47:17.181Z,23.77
2018-10-11T22:49:46.289Z,22.33
2018-10-11T22:52:15.550Z,23.67
2018-10-11T22:54:44.574Z,23.53
2018-10-11T22:57:13.745Z,21.80
2018-10-11T22:59:42.791Z,22.23
2018-10-11T23:02:12.123Z,22.40
2018-10-11T23:04:41.303Z,22.43
2018-10-11T23:07:10.817Z,22.03
2018-10-11T23:09:39.868Z,21.70
2018-10-11T23:12:09.172Z,22.27
2018-10-11T23:14:38.605Z,22.37
2018-10-11T23:17:07.846Z,23.17
2018-10-11T23:19:36.818Z,22.70
2018-10-11T23:22:06.017Z,22.07
2018-10-11T23:24:35.003Z,21.17
2018-10-11T23:27:04.019Z,20.87
2018-10-11T23:29:32.979Z,20.67
2018-10-11T23:32:02.818Z,22.07
2018-10-11T23:34:32.875Z,20.57
2018-10-11T23:37:02.419Z,20.07
2018-10-11T23:39:31.409Z,21.43
2018-10-11T23:42:01.022Z,19.50
2018-10-11T23:44:30.169Z,22.10
2018-10-11T23:46:59.202Z,22.63
2018-10-11T23:49:28.529Z,21.07
2018-10-11T23:51:57.834Z,20.00
2018-10-11T23:54:26.998Z,21.13
2018-10-11T23:56:56.211Z,19.87
2018-10-11T23:59:25.524Z,20.20
